createdAt,value
2022-11-07T06:16:37.578Z,1001.65
2022-11-07T06:17:37.581Z,1001.65
2022-11-07T06:18:41.328Z,1001.67
2022-11-07T06:19:37.614Z,1001.65
2022-11-07T06:20:37.632Z,1001.63
2022-11-07T06:21:37.638Z,1001.68
2022-11-07T06:22:37.774Z,1001.65
2022-11-07T06:23:37.629Z,1001.64
2022-11-07T06:24:37.619Z,1001.71
2022-11-07T06:25:37.646Z,1001.74
2022-11-07T06:26:38.119Z,1001.73
2022-11-07T06:27:38.200Z,1001.73
2022-11-07T06:28:37.676Z,1001.8
2022-11-07T06:29:37.718Z,1001.77
2022-11-07T06:30:37.724Z,1001.89
2022-11-07T06:31:37.724Z,1001.86
2022-11-07T06:32:37.832Z,1001.88
2022-11-07T06:33:37.769Z,1001.87
2022-11-07T06:34:37.740Z,1001.86
2022-11-07T06:35:37.846Z,1001.87
2022-11-07T06:36:37.787Z,1001.87
2022-11-07T06:37:37.788Z,1001.92
2022-11-07T06:38:37.975Z,1001.93
2022-11-07T06:39:37.760Z,1001.91
2022-11-07T06:40:37.758Z,1001.86
2022-11-07T06:41:37.771Z,1001.86
2022-11-07T06:42:37.780Z,1001.91
2022-11-07T06:43:37.856Z,1001.88
2022-11-07T06:44:37.804Z,1001.93
2022-11-07T06:45:37.803Z,1001.88
2022-11-07T06:46:37.812Z,1001.89
2022-11-07T06:47:38.026Z,1001.87
2022-11-07T06:48:37.929Z,1001.84
2022-11-07T06:49:37.843Z,1001.9
2022-11-07T06:50:37.853Z,1001.84
2022-11-07T06:51:37.932Z,1001.9
2022-11-07T06:52:37.877Z,1001.87
2022-11-07T06:53:37.871Z,1001.84
2022-11-07T06:54:37.882Z,1001.81
2022-11-07T06:55:37.979Z,1001.81
2022-11-07T06:56:37.933Z,1001.83
2022-11-07T06:57:38.279Z,1001.84
2022-11-07T06:58:37.925Z,1001.84
2022-11-07T06:59:37.936Z,1001.85
2022-11-07T07:00:38.008Z,1001.87
2022-11-07T07:01:38.314Z,1001.89
2022-11-07T07:02:57.226Z,1001.91
2022-11-07T07:03:37.983Z,1001.87
2022-11-07T07:04:38.003Z,1001.88
2022-11-07T07:05:38.006Z,1001.85
2022-11-07T07:06:38.004Z,1001.82
2022-11-07T07:07:38.006Z,1001.8
2022-11-07T07:08:38.011Z,1001.76
2022-11-07T07:09:38.020Z,1001.71
2022-11-07T07:10:38.047Z,1001.66
2022-11-07T07:11:38.045Z,1001.72
2022-11-07T07:12:38.054Z,1001.66
2022-11-07T07:13:38.060Z,1001.7
2022-11-07T07:14:38.073Z,1001.71
2022-11-07T07:15:50.232Z,1001.75
2022-11-07T07:16:38.317Z,1001.71
2022-11-07T07:17:38.096Z,1001.72
2022-11-07T07:18:38.109Z,1001.8
2022-11-07T07:19:38.116Z,1001.81
2022-11-07T07:20:38.274Z,1001.86
2022-11-07T07:21:38.144Z,1001.79
2022-11-07T07:22:38.200Z,1001.89
